sensor_id;sensor_type;location;lat;lon;timestamp;pressure;altitude;pressure_sealevel;temperature;humidity
40948;BME280;49382;-25.924;28.194;2022-09-09T00:01:31;85490.50;;;15.18;35.21
40948;BME280;49382;-25.924;28.194;2022-09-09T00:03:50;85486.95;;;16.47;33.52
40948;BME280;49382;-25.924;28.194;2022-09-09T00:06:21;85487.06;;;16.63;32.20
40948;BME280;49382;-25.924;28.194;2022-09-09T00:08:43;85484.87;;;17.47;31.25
40948;BME280;49382;-25.924;28.194;2022-09-09T00:11:04;85486.11;;;17.83;30.57
40948;BME280;49382;-25.924;28.194;2022-09-09T00:13:34;85486.03;;;17.14;30.84
40948;BME280;49382;-25.924;28.194;2022-09-09T00:16:00;85482.22;;;17.39;30.92
40948;BME280;49382;-25.924;28.194;2022-09-09T00:18:24;85477.28;;;17.22;31.44
40948;BME280;49382;-25.924;28.194;2022-09-09T00:20:52;85476.50;;;18.15;30.43
40948;BME280;49382;-25.924;28.194;2022-09-09T00:23:14;85474.30;;;17.98;30.51
40948;BME280;49382;-25.924;28.194;2022-09-09T00:25:42;85473.26;;;17.66;32.16
40948;BME280;49382;-25.924;28.194;2022-09-09T00:28:02;85473.78;;;17.57;32.02
40948;BME280;49382;-25.924;28.194;2022-09-09T00:30:33;85472.21;;;16.39;33.12
40948;BME280;49382;-25.924;28.194;2022-09-09T00:32:55;85470.10;;;16.54;33.39
40948;BME280;49382;-25.924;28.194;2022-09-09T00:35:23;85472.42;;;16.39;33.29
40948;BME280;49382;-25.924;28.194;2022-09-09T00:37:44;85468.72;;;17.28;31.40
40948;BME280;49382;-25.924;28.194;2022-09-09T00:40:18;85467.78;;;17.25;31.12
40948;BME280;49382;-25.924;28.194;2022-09-09T00:42:40;85465.34;;;16.85;31.53
40948;BME280;49382;-25.924;28.194;2022-09-09T00:45:05;85463.45;;;17.00;31.58
40948;BME280;49382;-25.924;28.194;2022-09-09T00:47:41;85468.13;;;17.30;31.23
40948;BME280;49382;-25.924;28.194;2022-09-09T00:49:59;85465.30;;;16.82;32.01
40948;BME280;49382;-25.924;28.194;2022-09-09T00:52:26;85467.06;;;16.09;33.61
40948;BME280;49382;-25.924;28.194;2022-09-09T00:54:48;85469.58;;;16.34;34.57
40948;BME280;49382;-25.924;28.194;2022-09-09T00:57:17;85466.63;;;15.72;34.79
40948;BME280;49382;-25.924;28.194;2022-09-09T00:59:40;85467.90;;;16.05;34.57
40948;BME280;49382;-25.924;28.194;2022-09-09T01:01:59;85467.22;;;15.66;34.56
40948;BME280;49382;-25.924;28.194;2022-09-09T01:04:29;85470.30;;;16.67;33.78
40948;BME280;49382;-25.924;28.194;2022-09-09T01:06:54;85471.33;;;17.38;32.25
40948;BME280;49382;-25.924;28.194;2022-09-09T01:09:21;85469.59;;;16.26;33.70
40948;BME280;49382;-25.924;28.194;2022-09-09T01:11:51;85465.48;;;17.18;33.12
40948;BME280;49382;-25.924;28.194;2022-09-09T01:14:14;85467.05;;;16.80;32.22
40948;BME280;49382;-25.924;28.194;2022-09-09T01:16:32;85469.69;;;16.42;32.88
40948;BME280;49382;-25.924;28.194;2022-09-09T01:18:57;85472.72;;;14.46;35.77
40948;BME280;49382;-25.924;28.194;2022-09-09T01:21:27;85470.67;;;14.70;35.35
40948;BME280;49382;-25.924;28.194;2022-09-09T01:24:00;85468.44;;;15.07;35.33
40948;BME280;49382;-25.924;28.194;2022-09-09T01:26:18;85468.22;;;16.64;32.99
40948;BME280;49382;-25.924;28.194;2022-09-09T01:28:39;85464.09;;;16.21;34.59
40948;BME280;49382;-25.924;28.194;2022-09-09T01:31:04;85463.53;;;16.02;34.78
40948;BME280;49382;-25.924;28.194;2022-09-09T01:33:29;85465.03;;;14.90;36.00
40948;BME280;49382;-25.924;28.194;2022-09-09T01:35:59;85461.70;;;16.33;34.85
40948;BME280;49382;-25.924;28.194;2022-09-09T01:38:21;85458.52;;;15.14;35.36
40948;BME280;49382;-25.924;28.194;2022-09-09T01:40:45;85459.98;;;15.85;34.51
40948;BME280;49382;-25.924;28.194;2022-09-09T01:43:11;85459.49;;;16.57;33.76
40948;BME280;49382;-25.924;28.194;2022-09-09T01:45:38;85458.40;;;15.01;35.74
40948;BME280;49382;-25.924;28.194;2022-09-09T01:48:03;85461.64;;;14.93;35.35
40948;BME280;49382;-25.924;28.194;2022-09-09T01:50:28;85462.61;;;14.81;36.11
40948;BME280;49382;-25.924;28.194;2022-09-09T01:52:57;85458.94;;;14.56;38.23
40948;BME280;49382;-25.924;28.194;2022-09-09T01:55:28;85459.42;;;14.54;37.15
40948;BME280;49382;-25.924;28.194;2022-09-09T01:57:52;85459.54;;;15.67;36.05
40948;BME280;49382;-25.924;28.194;2022-09-09T02:00:12;85461.03;;;15.63;36.16
40948;BME280;49382;-25.924;28.194;2022-09-09T02:02:41;85461.22;;;16.39;35.01
40948;BME280;49382;-25.924;28.194;2022-09-09T02:05:10;85459.41;;;16.01;35.69
40948;BME280;49382;-25.924;28.194;2022-09-09T02:07:35;85460.35;;;15.38;35.55
40948;BME280;49382;-25.924;28.194;2022-09-09T02:09:58;85461.35;;;15.43;35.98
40948;BME280;49382;-25.924;28.194;2022-09-09T02:12:19;85463.59;;;15.16;36.39
40948;BME280;49382;-25.924;28.194;2022-09-09T02:14:48;85464.40;;;14.30;37.26
40948;BME280;49382;-25.924;28.194;2022-09-09T02:17:10;85471.34;;;15.71;35.28
40948;BME280;49382;-25.924;28.194;2022-09-09T02:19:36;85472.11;;;14.59;36.19
40948;BME280;49382;-25.924;28.194;2022-09-09T02:22:00;85476.24;;;14.96;36.35
40948;BME280;49382;-25.924;28.194;2022-09-09T02:24:24;85473.35;;;15.94;35.23
40948;BME280;49382;-25.924;28.194;2022-09-09T02:26:53;85476.71;;;15.99;35.04
40948;BME280;49382;-25.924;28.194;2022-09-09T02:29:19;85479.95;;;15.34;35.48
40948;BME280;49382;-25.924;28.194;2022-09-09T02:31:42;85484.94;;;15.04;35.64
40948;BME280;49382;-25.924;28.194;2022-09-09T02:34:07;85480.98;;;15.42;34.97
40948;BME280;49382;-25.924;28.194;2022-09-09T02:36:33;85485.76;;;13.92;38.26
40948;BME280;49382;-25.924;28.194;2022-09-09T02:38:57;85484.25;;;15.98;35.63
40948;BME280;49382;-25.924;28.194;2022-09-09T02:41:27;85486.78;;;14.56;37.36
40948;BME280;49382;-25.924;28.194;2022-09-09T02:43:47;85488.61;;;14.05;37.46
40948;BME280;49382;-25.924;28.194;2022-09-09T02:46:24;85491.48;;;15.87;35.67
40948;BME280;49382;-25.924;28.194;2022-09-09T02:48:48;85490.34;;;14.77;36.22
40948;BME280;49382;-25.924;28.194;2022-09-09T02:51:08;85489.74;;;14.19;37.46
40948;BME280;49382;-25.924;28.194;2022-09-09T02:53:36;85493.41;;;15.23;35.34
40948;BME280;49382;-25.924;28.194;2022-09-09T02:55:57;85491.62;;;15.01;35.41
40948;BME280;49382;-25.924;28.194;2022-09-09T02:58:20;85494.67;;;15.89;35.17
40948;BME280;49382;-25.924;28.194;2022-09-09T03:00:47;85498.46;;;15.71;34.63
40948;BME280;49382;-25.924;28.194;2022-09-09T03:03:11;85500.82;;;15.39;35.31
40948;BME280;49382;-25.924;28.194;2022-09-09T03:05:36;85502.03;;;16.44;34.23
40948;BME280;49382;-25.924;28.194;2022-09-09T03:08:01;85504.40;;;14.88;35.39
40948;BME280;49382;-25.924;28.194;2022-09-09T03:10:26;85502.61;;;16.12;34.20
40948;BME280;49382;-25.924;28.194;2022-09-09T03:12:52;85506.07;;;16.60;33.45
40948;BME280;49382;-25.924;28.194;2022-09-09T03:15:18;85506.20;;;16.27;33.80
40948;BME280;49382;-25.924;28.194;2022-09-09T03:17:43;85513.40;;;13.63;37.42
40948;BME280;49382;-25.924;28.194;2022-09-09T03:20:09;85510.46;;;14.82;35.96
40948;BME280;49382;-25.924;28.194;2022-09-09T03:22:35;85516.24;;;15.13;35.82
40948;BME280;49382;-25.924;28.194;2022-09-09T03:25:00;85518.49;;;14.44;36.62
40948;BME280;49382;-25.924;28.194;2022-09-09T03:27:26;85520.93;;;15.48;35.59
40948;BME280;49382;-25.924;28.194;2022-09-09T03:29:51;85524.56;;;14.48;37.14
40948;BME280;49382;-25.924;28.194;2022-09-09T03:32:17;85522.60;;;13.50;38.22
40948;BME280;49382;-25.924;28.194;2022-09-09T03:34:42;85529.06;;;14.37;37.35
40948;BME280;49382;-25.924;28.194;2022-09-09T03:37:08;85531.99;;;14.35;37.14
40948;BME280;49382;-25.924;28.194;2022-09-09T03:39:34;85534.07;;;14.32;36.72
40948;BME280;49382;-25.924;28.194;2022-09-09T03:41:59;85537.01;;;13.89;38.31
40948;BME280;49382;-25.924;28.194;2022-09-09T03:44:24;85538.41;;;14.04;37.63
40948;BME280;49382;-25.924;28.194;2022-09-09T03:46:49;85543.58;;;14.41;36.56
40948;BME280;49382;-25.924;28.194;2022-09-09T03:49:15;85539.88;;;15.73;34.85
40948;BME280;49382;-25.924;28.194;2022-09-09T03:51:41;85543.34;;;14.96;35.07
40948;BME280;49382;-25.924;28.194;2022-09-09T03:54:06;85546.07;;;15.12;35.33
40948;BME280;49382;-25.924;28.194;2022-09-09T03:56:31;85550.66;;;15.34;34.50
40948;BME280;49382;-25.924;28.194;2022-09-09T03:58:57;85552.76;;;16.11;33.80
40948;BME280;49382;-25.924;28.194;2022-09-09T04:01:22;85554.46;;;15.18;34.62
40948;BME280;49382;-25.924;28.194;2022-09-09T04:03:48;85557.38;;;15.56;34.49
40948;BME280;49382;-25.924;28.194;2022-09-09T04:06:14;85557.30;;;15.06;34.94
40948;BME280;49382;-25.924;28.194;2022-09-09T04:08:38;85564.02;;;14.07;36.42
40948;BME280;49382;-25.924;28.194;2022-09-09T04:11:04;85565.32;;;13.73;36.84
40948;BME280;49382;-25.924;28.194;2022-09-09T04:13:29;85564.21;;;14.83;35.54
40948;BME280;49382;-25.924;28.194;2022-09-09T04:15:56;85569.94;;;14.96;34.94
40948;BME280;49382;-25.924;28.194;2022-09-09T04:18:20;85565.22;;;15.14;34.73
40948;BME280;49382;-25.924;28.194;2022-09-09T04:20:47;85576.87;;;13.58;36.59
40948;BME280;49382;-25.924;28.194;2022-09-09T04:23:11;85574.67;;;15.44;35.13
40948;BME280;49382;-25.924;28.194;2022-09-09T04:25:36;85579.21;;;14.29;36.87
40948;BME280;49382;-25.924;28.194;2022-09-09T04:28:02;85583.98;;;14.40;37.54
40948;BME280;49382;-25.924;28.194;2022-09-09T04:30:27;85586.89;;;15.22;36.85
40948;BME280;49382;-25.924;28.194;2022-09-09T04:32:53;85589.50;;;15.69;35.76
40948;BME280;49382;-25.924;28.194;2022-09-09T04:35:19;85598.17;;;16.33;34.95
40948;BME280;49382;-25.924;28.194;2022-09-09T04:37:44;85603.20;;;14.87;36.55
40948;BME280;49382;-25.924;28.194;2022-09-09T04:40:09;85600.53;;;15.80;34.28
40948;BME280;49382;-25.924;28.194;2022-09-09T04:42:36;85600.63;;;16.65;33.56
40948;BME280;49382;-25.924;28.194;2022-09-09T04:45:00;85602.21;;;17.15;32.62
40948;BME280;49382;-25.924;28.194;2022-09-09T04:47:25;85604.39;;;16.49;33.52
40948;BME280;49382;-25.924;28.194;2022-09-09T04:49:51;85608.87;;;16.90;33.11
40948;BME280;49382;-25.924;28.194;2022-09-09T04:52:17;85610.75;;;16.65;33.62
40948;BME280;49382;-25.924;28.194;2022-09-09T04:54:42;85613.66;;;16.69;33.43
40948;BME280;49382;-25.924;28.194;2022-09-09T04:57:07;85617.33;;;17.33;35.39
40948;BME280;49382;-25.924;28.194;2022-09-09T04:59:32;85620.56;;;16.27;36.95
40948;BME280;49382;-25.924;28.194;2022-09-09T05:01:58;85623.05;;;17.13;36.89
40948;BME280;49382;-25.924;28.194;2022-09-09T05:04:24;85628.62;;;17.35;36.91
40948;BME280;49382;-25.924;28.194;2022-09-09T05:06:49;85628.34;;;17.13;34.39
40948;BME280;49382;-25.924;28.194;2022-09-09T05:09:15;85630.35;;;17.81;33.53
40948;BME280;49382;-25.924;28.194;2022-09-09T05:11:40;85632.81;;;17.98;33.53
40948;BME280;49382;-25.924;28.194;2022-09-09T05:14:05;85634.57;;;17.32;35.01
40948;BME280;49382;-25.924;28.194;2022-09-09T05:16:32;85637.73;;;17.66;33.88
40948;BME280;49382;-25.924;28.194;2022-09-09T05:18:56;85641.92;;;17.32;33.94
40948;BME280;49382;-25.924;28.194;2022-09-09T05:21:23;85642.16;;;17.66;33.46
40948;BME280;49382;-25.924;28.194;2022-09-09T05:23:47;85646.72;;;18.34;32.83
40948;BME280;49382;-25.924;28.194;2022-09-09T05:26:14;85649.04;;;17.11;35.23
40948;BME280;49382;-25.924;28.194;2022-09-09T05:28:38;85649.95;;;16.91;35.15
40948;BME280;49382;-25.924;28.194;2022-09-09T05:31:06;85651.93;;;17.63;34.50
40948;BME280;49382;-25.924;28.194;2022-09-09T05:33:29;85655.07;;;18.16;34.93
40948;BME280;49382;-25.924;28.194;2022-09-09T05:35:58;85661.68;;;19.51;32.39
40948;BME280;49382;-25.924;28.194;2022-09-09T05:38:19;85665.56;;;19.41;31.99
40948;BME280;49382;-25.924;28.194;2022-09-09T05:40:48;85665.72;;;18.77;33.75
40948;BME280;49382;-25.924;28.194;2022-09-09T05:43:10;85674.71;;;19.41;32.07
40948;BME280;49382;-25.924;28.194;2022-09-09T05:45:36;85677.61;;;19.57;31.58
40948;BME280;49382;-25.924;28.194;2022-09-09T05:48:01;85680.44;;;19.25;32.36
40948;BME280;49382;-25.924;28.194;2022-09-09T05:50:27;85681.97;;;19.44;30.29
40948;BME280;49382;-25.924;28.194;2022-09-09T05:52:55;85683.24;;;19.39;30.80
40948;BME280;49382;-25.924;28.194;2022-09-09T05:55:18;85684.15;;;20.00;33.89
40948;BME280;49382;-25.924;28.194;2022-09-09T05:57:49;85686.07;;;19.84;34.11
40948;BME280;49382;-25.924;28.194;2022-09-09T06:00:10;85689.51;;;19.81;33.71
40948;BME280;49382;-25.924;28.194;2022-09-09T06:02:34;85691.70;;;19.28;35.15
40948;BME280;49382;-25.924;28.194;2022-09-09T06:05:00;85693.31;;;20.22;34.56
40948;BME280;49382;-25.924;28.194;2022-09-09T06:07:25;85695.05;;;20.48;32.48
40948;BME280;49382;-25.924;28.194;2022-09-09T06:09:50;85692.41;;;20.24;30.79
40948;BME280;49382;-25.924;28.194;2022-09-09T06:12:16;85695.30;;;21.29;30.92
40948;BME280;49382;-25.924;28.194;2022-09-09T06:14:42;85696.67;;;20.34;30.64
40948;BME280;49382;-25.924;28.194;2022-09-09T06:17:07;85698.24;;;21.26;30.75
40948;BME280;49382;-25.924;28.194;2022-09-09T06:19:32;85696.90;;;21.19;31.86
40948;BME280;49382;-25.924;28.194;2022-09-09T06:21:58;85697.99;;;20.78;33.08
40948;BME280;49382;-25.924;28.194;2022-09-09T06:24:23;85700.52;;;20.92;33.47
40948;BME280;49382;-25.924;28.194;2022-09-09T06:26:48;85705.59;;;21.32;30.08
40948;BME280;49382;-25.924;28.194;2022-09-09T06:29:14;85706.79;;;20.72;30.51
40948;BME280;49382;-25.924;28.194;2022-09-09T06:31:39;85703.38;;;22.28;29.59
40948;BME280;49382;-25.924;28.194;2022-09-09T06:34:06;85702.33;;;22.11;28.94
40948;BME280;49382;-25.924;28.194;2022-09-09T06:36:32;85702.40;;;23.07;30.28
40948;BME280;49382;-25.924;28.194;2022-09-09T06:38:56;85704.61;;;23.34;29.28
40948;BME280;49382;-25.924;28.194;2022-09-09T06:41:24;85707.59;;;21.91;29.73
40948;BME280;49382;-25.924;28.194;2022-09-09T06:43:46;85708.67;;;23.05;28.55
40948;BME280;49382;-25.924;28.194;2022-09-09T06:46:13;85713.43;;;23.31;29.38
40948;BME280;49382;-25.924;28.194;2022-09-09T06:48:38;85710.65;;;23.39;29.09
40948;BME280;49382;-25.924;28.194;2022-09-09T06:51:04;85712.09;;;23.86;28.14
40948;BME280;49382;-25.924;28.194;2022-09-09T06:53:28;85715.02;;;24.17;26.68
40948;BME280;49382;-25.924;28.194;2022-09-09T06:55:53;85713.00;;;23.93;27.88
40948;BME280;49382;-25.924;28.194;2022-09-09T06:58:18;85712.74;;;23.93;26.82
40948;BME280;49382;-25.924;28.194;2022-09-09T07:00:44;85711.42;;;25.05;26.41
40948;BME280;49382;-25.924;28.194;2022-09-09T07:03:10;85710.29;;;24.73;27.43
40948;BME280;49382;-25.924;28.194;2022-09-09T07:05:34;85715.01;;;24.71;26.40
40948;BME280;49382;-25.924;28.194;2022-09-09T07:08:00;85713.05;;;24.31;26.84
40948;BME280;49382;-25.924;28.194;2022-09-09T07:10:26;85711.43;;;24.79;26.33
40948;BME280;49382;-25.924;28.194;2022-09-09T07:12:52;85710.87;;;24.68;26.44
40948;BME280;49382;-25.924;28.194;2022-09-09T07:15:17;85714.29;;;25.01;26.09
40948;BME280;49382;-25.924;28.194;2022-09-09T07:17:42;85711.74;;;24.49;26.71
40948;BME280;49382;-25.924;28.194;2022-09-09T07:20:08;85712.06;;;24.82;26.21
40948;BME280;49382;-25.924;28.194;2022-09-09T07:22:33;85716.80;;;25.77;25.95
40948;BME280;49382;-25.924;28.194;2022-09-09T07:24:58;85714.42;;;25.77;26.00
40948;BME280;49382;-25.924;28.194;2022-09-09T07:27:23;85718.08;;;25.31;25.65
40948;BME280;49382;-25.924;28.194;2022-09-09T07:29:49;85715.26;;;25.94;25.61
40948;BME280;49382;-25.924;28.194;2022-09-09T07:32:14;85715.62;;;25.91;26.44
40948;BME280;49382;-25.924;28.194;2022-09-09T07:34:39;85714.33;;;26.38;25.01
40948;BME280;49382;-25.924;28.194;2022-09-09T07:37:05;85714.11;;;26.34;24.59
40948;BME280;49382;-25.924;28.194;2022-09-09T07:39:30;85714.48;;;26.66;25.99
40948;BME280;49382;-25.924;28.194;2022-09-09T07:41:55;85714.68;;;27.03;25.13
40948;BME280;49382;-25.924;28.194;2022-09-09T07:44:23;85712.29;;;26.53;24.61
40948;BME280;49382;-25.924;28.194;2022-09-09T07:46:47;85708.52;;;27.07;25.50
40948;BME280;49382;-25.924;28.194;2022-09-09T07:49:12;85713.68;;;26.56;23.81
40948;BME280;49382;-25.924;28.194;2022-09-09T07:51:40;85711.00;;;26.93;22.81
40948;BME280;49382;-25.924;28.194;2022-09-09T07:54:06;85711.46;;;27.59;23.20
40948;BME280;49382;-25.924;28.194;2022-09-09T07:56:30;85706.35;;;27.28;22.27
40948;BME280;49382;-25.924;28.194;2022-09-09T07:58:56;85711.66;;;28.23;22.49
40948;BME280;49382;-25.924;28.194;2022-09-09T08:01:22;85711.91;;;28.03;22.19
40948;BME280;49382;-25.924;28.194;2022-09-09T08:03:51;85712.26;;;27.95;22.10
40948;BME280;49382;-25.924;28.194;2022-09-09T08:06:12;85709.22;;;28.76;21.30
40948;BME280;49382;-25.924;28.194;2022-09-09T08:08:36;85712.80;;;28.97;21.99
40948;BME280;49382;-25.924;28.194;2022-09-09T08:11:05;85710.18;;;28.52;21.59
40948;BME280;49382;-25.924;28.194;2022-09-09T08:13:27;85709.31;;;28.37;21.30
40948;BME280;49382;-25.924;28.194;2022-09-09T08:15:53;85712.48;;;29.46;21.94
40948;BME280;49382;-25.924;28.194;2022-09-09T08:18:19;85710.36;;;29.00;21.25
40948;BME280;49382;-25.924;28.194;2022-09-09T08:20:44;85711.19;;;29.26;21.53
40948;BME280;49382;-25.924;28.194;2022-09-09T08:23:10;85709.53;;;28.45;20.29
40948;BME280;49382;-25.924;28.194;2022-09-09T08:25:35;85710.55;;;29.98;20.80
40948;BME280;49382;-25.924;28.194;2022-09-09T08:28:01;85706.97;;;28.94;20.61
40948;BME280;49382;-25.924;28.194;2022-09-09T08:30:27;85704.82;;;29.36;20.78
40948;BME280;49382;-25.924;28.194;2022-09-09T08:32:52;85702.00;;;30.06;20.26
40948;BME280;49382;-25.924;28.194;2022-09-09T08:35:17;85700.49;;;28.52;18.61
40948;BME280;49382;-25.924;28.194;2022-09-09T08:37:42;85693.79;;;29.41;20.42
40948;BME280;49382;-25.924;28.194;2022-09-09T08:40:10;85691.63;;;28.13;21.97
40948;BME280;49382;-25.924;28.194;2022-09-09T08:42:38;85688.90;;;28.92;21.50
40948;BME280;49382;-25.924;28.194;2022-09-09T08:45:05;85688.17;;;29.42;21.39
40948;BME280;49382;-25.924;28.194;2022-09-09T08:47:28;85684.03;;;28.60;21.94
40948;BME280;49382;-25.924;28.194;2022-09-09T08:52:18;85677.94;;;29.41;21.25
40948;BME280;49382;-25.924;28.194;2022-09-09T08:54:40;85672.25;;;28.13;21.07
40948;BME280;49382;-25.924;28.194;2022-09-09T08:57:11;85670.89;;;28.04;21.56
40948;BME280;49382;-25.924;28.194;2022-09-09T08:59:30;85669.04;;;28.70;20.32
40948;BME280;49382;-25.924;28.194;2022-09-09T09:02:03;85668.04;;;28.66;21.22
40948;BME280;49382;-25.924;28.194;2022-09-09T09:04:32;85667.55;;;28.66;20.20
40948;BME280;49382;-25.924;28.194;2022-09-09T09:06:53;85662.36;;;28.65;20.96
40948;BME280;49382;-25.924;28.194;2022-09-09T09:09:18;85662.80;;;29.22;20.65
40948;BME280;49382;-25.924;28.194;2022-09-09T09:11:40;85661.55;;;28.71;20.40
40948;BME280;49382;-25.924;28.194;2022-09-09T09:14:09;85664.94;;;29.22;21.10
40948;BME280;49382;-25.924;28.194;2022-09-09T09:16:34;85659.32;;;28.94;22.29
40948;BME280;49382;-25.924;28.194;2022-09-09T09:18:55;85655.87;;;28.89;21.37
40948;BME280;49382;-25.924;28.194;2022-09-09T09:21:25;85652.26;;;28.84;21.03
40948;BME280;49382;-25.924;28.194;2022-09-09T09:23:53;85647.46;;;28.91;20.27
40948;BME280;49382;-25.924;28.194;2022-09-09T09:26:11;85647.40;;;29.29;20.66
40948;BME280;49382;-25.924;28.194;2022-09-09T09:28:42;85641.06;;;29.45;19.59
40948;BME280;49382;-25.924;28.194;2022-09-09T09:31:05;85637.03;;;27.83;21.87
40948;BME280;49382;-25.924;28.194;2022-09-09T09:33:29;85631.43;;;28.15;20.54
40948;BME280;49382;-25.924;28.194;2022-09-09T09:35:53;85627.90;;;27.72;21.30
40948;BME280;49382;-25.924;28.194;2022-09-09T09:38:20;85622.64;;;28.61;20.02
40948;BME280;49382;-25.924;28.194;2022-09-09T09:40:49;85614.90;;;27.69;20.26
40948;BME280;49382;-25.924;28.194;2022-09-09T09:43:17;85609.52;;;28.13;18.94
40948;BME280;49382;-25.924;28.194;2022-09-09T09:45:41;85610.26;;;28.71;20.41
40948;BME280;49382;-25.924;28.194;2022-09-09T09:48:02;85607.90;;;28.52;21.30
40948;BME280;49382;-25.924;28.194;2022-09-09T09:50:25;85602.76;;;28.53;22.29
40948;BME280;49382;-25.924;28.194;2022-09-09T09:52:55;85596.45;;;28.01;22.19
40948;BME280;49382;-25.924;28.194;2022-09-09T09:55:17;85591.19;;;28.23;20.43
40948;BME280;49382;-25.924;28.194;2022-09-09T09:57:42;85586.56;;;28.91;20.85
40948;BME280;49382;-25.924;28.194;2022-09-09T10:00:14;85579.97;;;27.81;19.80
40948;BME280;49382;-25.924;28.194;2022-09-09T10:02:38;85577.88;;;28.16;20.19
40948;BME280;49382;-25.924;28.194;2022-09-09T10:05:03;85575.40;;;27.88;20.25
40948;BME280;49382;-25.924;28.194;2022-09-09T10:07:23;85571.06;;;28.37;18.61
40948;BME280;49382;-25.924;28.194;2022-09-09T10:09:52;85567.31;;;28.09;19.65
40948;BME280;49382;-25.924;28.194;2022-09-09T10:12:23;85560.20;;;28.50;19.67
40948;BME280;49382;-25.924;28.194;2022-09-09T10:14:46;85556.41;;;28.21;19.67
40948;BME280;49382;-25.924;28.194;2022-09-09T10:17:16;85550.38;;;28.32;18.55
40948;BME280;49382;-25.924;28.194;2022-09-09T10:19:33;85537.72;;;27.72;19.24
40948;BME280;49382;-25.924;28.194;2022-09-09T10:22:04;85536.06;;;28.55;17.94
40948;BME280;49382;-25.924;28.194;2022-09-09T10:26:51;85534.72;;;28.09;16.67
40948;BME280;49382;-25.924;28.194;2022-09-09T10:29:30;85527.96;;;28.39;18.17
40948;BME280;49382;-25.924;28.194;2022-09-09T10:31:46;85520.46;;;27.36;18.43
40948;BME280;49382;-25.924;28.194;2022-09-09T10:34:12;85511.93;;;28.20;17.26
40948;BME280;49382;-25.924;28.194;2022-09-09T10:36:29;85507.39;;;28.22;17.04
40948;BME280;49382;-25.924;28.194;2022-09-09T10:38:59;85507.31;;;27.23;18.70
40948;BME280;49382;-25.924;28.194;2022-09-09T10:41:25;85510.69;;;28.19;17.82
40948;BME280;49382;-25.924;28.194;2022-09-09T10:43:56;85505.33;;;27.63;16.94
40948;BME280;49382;-25.924;28.194;2022-09-09T10:46:14;85501.57;;;27.72;17.15
40948;BME280;49382;-25.924;28.194;2022-09-09T10:48:47;85496.81;;;28.02;17.02
40948;BME280;49382;-25.924;28.194;2022-09-09T10:51:13;85493.84;;;27.54;15.14
40948;BME280;49382;-25.924;28.194;2022-09-09T10:53:35;85490.69;;;26.87;16.50
40948;BME280;49382;-25.924;28.194;2022-09-09T10:55:56;85485.85;;;27.69;14.98
40948;BME280;49382;-25.924;28.194;2022-09-09T10:58:23;85483.95;;;27.83;14.94
40948;BME280;49382;-25.924;28.194;2022-09-09T11:00:45;85488.15;;;28.06;15.95
40948;BME280;49382;-25.924;28.194;2022-09-09T11:03:15;85480.82;;;28.09;15.53
40948;BME280;49382;-25.924;28.194;2022-09-09T11:05:38;85477.89;;;27.97;15.13
40948;BME280;49382;-25.924;28.194;2022-09-09T11:08:01;85473.47;;;28.16;13.50
40948;BME280;49382;-25.924;28.194;2022-09-09T11:10:26;85469.92;;;27.46;14.57
40948;BME280;49382;-25.924;28.194;2022-09-09T11:12:50;85465.62;;;28.21;14.58
40948;BME280;49382;-25.924;28.194;2022-09-09T11:15:18;85463.54;;;27.58;16.48
40948;BME280;49382;-25.924;28.194;2022-09-09T11:17:44;85458.43;;;28.00;15.92
40948;BME280;49382;-25.924;28.194;2022-09-09T11:20:06;85453.06;;;27.69;16.12
40948;BME280;49382;-25.924;28.194;2022-09-09T11:22:34;85452.53;;;27.43;15.74
40948;BME280;49382;-25.924;28.194;2022-09-09T11:25:00;85452.60;;;27.57;16.21
40948;BME280;49382;-25.924;28.194;2022-09-09T11:27:24;85443.50;;;28.15;14.54
40948;BME280;49382;-25.924;28.194;2022-09-09T11:30:02;85439.73;;;27.13;13.92
40948;BME280;49382;-25.924;28.194;2022-09-09T11:32:24;85437.32;;;26.95;13.96
40948;BME280;49382;-25.924;28.194;2022-09-09T11:34:50;85430.16;;;25.70;14.95
40948;BME280;49382;-25.924;28.194;2022-09-09T11:37:16;85430.49;;;26.47;14.66
40948;BME280;49382;-25.924;28.194;2022-09-09T11:39:37;85423.60;;;26.13;17.22
40948;BME280;49382;-25.924;28.194;2022-09-09T11:41:55;85424.41;;;27.36;15.99
40948;BME280;49382;-25.924;28.194;2022-09-09T11:44:26;85420.95;;;26.66;16.01
40948;BME280;49382;-25.924;28.194;2022-09-09T11:46:48;85417.56;;;27.11;15.06
40948;BME280;49382;-25.924;28.194;2022-09-09T11:51:37;85410.12;;;26.63;13.17
40948;BME280;49382;-25.924;28.194;2022-09-09T11:56:30;85398.67;;;26.47;13.92
40948;BME280;49382;-25.924;28.194;2022-09-09T11:58:59;85392.95;;;27.29;13.96
40948;BME280;49382;-25.924;28.194;2022-09-09T12:01:27;85390.65;;;27.67;14.40
40948;BME280;49382;-25.924;28.194;2022-09-09T12:03:46;85388.83;;;27.71;15.52
40948;BME280;49382;-25.924;28.194;2022-09-09T12:06:13;85384.92;;;27.47;15.66
40948;BME280;49382;-25.924;28.194;2022-09-09T12:08:36;85383.38;;;27.70;16.15
40948;BME280;49382;-25.924;28.194;2022-09-09T12:11:02;85376.53;;;28.04;16.05
40948;BME280;49382;-25.924;28.194;2022-09-09T12:13:28;85380.16;;;28.19;15.92
40948;BME280;49382;-25.924;28.194;2022-09-09T12:15:54;85375.39;;;27.12;14.72
40948;BME280;49382;-25.924;28.194;2022-09-09T12:18:24;85373.43;;;27.39;14.71
40948;BME280;49382;-25.924;28.194;2022-09-09T12:20:52;85367.48;;;27.01;16.07
40948;BME280;49382;-25.924;28.194;2022-09-09T12:23:22;85368.02;;;26.32;16.99
40948;BME280;49382;-25.924;28.194;2022-09-09T12:25:48;85365.02;;;27.32;16.50
40948;BME280;49382;-25.924;28.194;2022-09-09T12:28:08;85363.43;;;26.60;16.40
40948;BME280;49382;-25.924;28.194;2022-09-09T12:30:32;85359.80;;;27.72;14.82
40948;BME280;49382;-25.924;28.194;2022-09-09T12:33:01;85354.67;;;27.18;14.29
40948;BME280;49382;-25.924;28.194;2022-09-09T12:35:21;85356.62;;;27.31;14.33
40948;BME280;49382;-25.924;28.194;2022-09-09T12:37:48;85357.21;;;27.78;14.20
40948;BME280;49382;-25.924;28.194;2022-09-09T12:40:19;85356.45;;;27.52;15.53